Time,TemperatureF,DewpointF,PressureIn,WindDirection,WindDirectionDegrees,WindSpeedMPH,WindSpeedGustMPH,Humidity,HourlyPrecipIn,Conditions,Clouds,dailyrainin,SoftwareType,DateUTC
2013-02-25 00:00:00,29.4,28.4,29.80,NNW,328,1.0,1.0,96,0.00,,,0.00,Wunderground v.1.12,2013-02-25 05:00:00,
2013-02-25 00:01:00,29.4,28.4,29.80,NNW,328,0.0,1.0,96,0.00,,,0.00,Wunderground v.1.12,2013-02-25 05:01:00,
2013-02-25 00:03:00,29.4,28.4,29.80,NNW,328,0.0,1.0,96,0.00,,,0.00,Wunderground v.1.12,2013-02-25 05:03:00,
2013-02-25 00:07:00,29.5,28.5,29.81,NNW,338,0.0,3.0,96,0.00,,,0.00,Wunderground v.1.12,2013-02-25 05:07:00,
2013-02-25 00:09:00,29.4,28.4,29.80,NNW,328,0.0,2.0,96,0.00,,,0.00,Wunderground v.1.12,2013-02-25 05:09:00,
2013-02-25 00:14:00,29.4,28.4,29.80,NNW,328,0.0,0.0,96,0.00,,,0.00,Wunderground v.1.12,2013-02-25 05:14:00,
2013-02-25 00:20:00,29.5,28.5,29.80,NNW,328,0.0,0.0,96,0.00,,,0.00,Wunderground v.1.12,2013-02-25 05:20:00,
2013-02-25 00:25:00,29.5,28.5,29.80,NNW,328,0.0,0.0,96,0.00,,,0.00,Wunderground v.1.12,2013-02-25 05:25:00,
2013-02-25 00:31:00,29.5,28.5,29.81,NNW,328,0.0,1.0,96,0.00,,,0.00,Wunderground v.1.12,2013-02-25 05:31:00,
2013-02-25 00:36:00,29.5,28.5,29.81,NNW,338,0.0,3.0,96,0.00,,,0.00,Wunderground v.1.12,2013-02-25 05:36:00,
2013-02-25 00:38:00,29.5,28.5,29.81,NNW,328,0.0,0.0,96,0.00,,,0.00,Wunderground v.1.12,2013-02-25 05:38:00,
2013-02-25 00:40:00,29.5,28.5,29.81,NNW,338,0.0,3.0,96,0.00,,,0.00,Wunderground v.1.12,2013-02-25 05:40:00,
2013-02-25 00:42:00,29.5,28.5,29.81,NNW,338,0.0,3.0,96,0.00,,,0.00,Wunderground v.1.12,2013-02-25 05:42:00,
2013-02-25 00:43:00,29.5,28.5,29.81,NNW,328,0.0,3.0,96,0.00,,,0.00,Wunderground v.1.12,2013-02-25 05:43:00,
2013-02-25 00:44:00,29.5,28.5,29.81,NNW,338,0.0,3.0,96,0.00,,,0.00,Wunderground v.1.12,2013-02-25 05:44:00,
2013-02-25 00:46:00,29.4,28.4,29.82,NNW,338,0.0,3.0,96,0.00,,,0.00,Wunderground v.1.12,2013-02-25 05:46:00,
2013-02-25 00:48:00,29.5,28.5,29.81,NNW,328,0.0,1.0,96,0.00,,,0.00,Wunderground v.1.12,2013-02-25 05:48:00,
2013-02-25 00:50:00,29.4,28.4,29.82,NNW,338,0.0,3.0,96,0.00,,,0.00,Wunderground v.1.12,2013-02-25 05:50:00,
2013-02-25 00:52:00,29.4,28.4,29.82,NNW,338,0.0,3.0,96,0.00,,,0.00,Wunderground v.1.12,2013-02-25 05:52:00,
2013-02-25 00:53:00,29.5,28.5,29.81,NNW,328,0.0,1.0,96,0.00,,,0.00,Wunderground v.1.12,2013-02-25 05:53:00,
2013-02-25 00:54:00,29.4,28.4,29.82,NNW,338,0.0,3.0,96,0.00,,,0.00,Wunderground v.1.12,2013-02-25 05:54:00,
2013-02-25 00:56:00,29.4,28.4,29.82,NNW,338,0.0,3.0,96,0.00,,,0.00,Wunderground v.1.12,2013-02-25 05:56:00,
2013-02-25 00:58:00,29.4,28.4,29.82,NNW,338,0.0,3.0,96,0.00,,,0.00,Wunderground v.1.12,2013-02-25 05:58:00,
2013-02-25 00:59:00,29.4,28.4,29.82,NNW,328,0.0,0.0,96,0.00,,,0.00,Wunderground v.1.12,2013-02-25 05:59:00,
2013-02-25 01:00:00,29.4,28.4,29.82,NNW,338,0.0,3.0,96,0.00,,,0.00,Wunderground v.1.12,2013-02-25 06:00:00,
2013-02-25 01:02:00,29.4,28.4,29.82,NNW,338,0.0,3.0,96,0.00,,,0.00,Wunderground v.1.12,2013-02-25 06:02:00,
2013-02-25 01:04:00,29.4,28.4,29.82,NNW,338,0.0,3.0,96,0.00,,,0.00,Wunderground v.1.12,2013-02-25 06:04:00,
2013-02-25 01:05:00,29.4,28.4,29.82,NNW,328,0.0,0.0,96,0.00,,,0.00,Wunderground v.1.12,2013-02-25 06:05:00,
2013-02-25 01:11:00,29.4,28.4,29.82,NNW,328,0.0,0.0,96,0.00,,,0.00,Wunderground v.1.12,2013-02-25 06:11:00,
2013-02-25 01:17:00,29.4,28.4,29.82,NNW,328,0.0,0.0,96,0.00,,,0.00,Wunderground v.1.12,2013-02-25 06:17:00,
2013-02-25 01:23:00,29.4,28.4,29.82,NNW,328,0.0,0.0,96,0.00,,,0.00,Wunderground v.1.12,2013-02-25 06:23:00,
2013-02-25 01:29:00,29.4,28.4,29.82,NNW,328,0.0,3.0,96,0.00,,,0.00,Wunderground v.1.12,2013-02-25 06:29:00,
2013-02-25 01:34:00,29.3,28.3,29.82,NNW,328,0.0,0.0,96,0.00,,,0.00,Wunderground v.1.12,2013-02-25 06:34:00,
2013-02-25 01:38:00,29.4,28.4,29.82,NNW,338,0.0,3.0,96,0.00,,,0.00,Wunderground v.1.12,2013-02-25 06:38:00,
2013-02-25 01:39:00,29.3,28.3,29.82,NNW,328,0.0,0.0,96,0.00,,,0.00,Wunderground v.1.12,2013-02-25 06:39:00,
2013-02-25 01:45:00,29.3,28.3,29.83,NNW,328,0.0,0.0,96,0.00,,,0.00,Wunderground v.1.12,2013-02-25 06:45:00,
2013-02-25 01:50:00,29.3,28.3,29.83,NNW,328,0.0,0.0,96,0.00,,,0.00,Wunderground v.1.12,2013-02-25 06:50:00,
2013-02-25 01:55:00,29.3,28.3,29.83,NNW,328,0.0,0.0,96,0.00,,,0.00,Wunderground v.1.12,2013-02-25 06:55:00,
2013-02-25 02:01:00,29.3,28.3,29.83,NNW,328,0.0,0.0,96,0.00,,,0.00,Wunderground v.1.12,2013-02-25 07:01:00,
2013-02-25 02:07:00,29.3,28.3,29.83,NNW,328,0.0,0.0,96,0.00,,,0.00,Wunderground v.1.12,2013-02-25 07:07:00,
2013-02-25 02:08:00,29.3,28.3,29.83,NNW,338,0.0,3.0,96,0.00,,,0.00,Wunderground v.1.12,2013-02-25 07:08:00,
2013-02-25 02:12:00,29.3,28.3,29.83,NNW,328,0.0,0.0,96,0.00,,,0.00,Wunderground v.1.12,2013-02-25 07:12:00,
2013-02-25 02:18:00,29.3,28.3,29.84,NNW,328,0.0,1.0,96,0.00,,,0.00,Wunderground v.1.12,2013-02-25 07:18:00,
2013-02-25 02:23:00,29.3,28.3,29.84,NNW,328,0.0,2.0,96,0.00,,,0.00,Wunderground v.1.12,2013-02-25 07:23:00,
2013-02-25 02:28:00,29.3,28.3,29.84,NNW,328,0.0,2.0,96,0.00,,,0.00,Wunderground v.1.12,2013-02-25 07:28:00,
2013-02-25 02:34:00,29.3,28.3,29.84,NNW,328,0.0,1.0,96,0.00,,,0.00,Wunderground v.1.12,2013-02-25 07:34:00,
2013-02-25 02:36:00,29.3,28.3,29.84,NNW,338,0.0,3.0,96,0.00,,,0.00,Wunderground v.1.12,2013-02-25 07:36:00,
2013-02-25 02:39:00,29.3,28.3,29.84,NNW,328,0.0,0.0,96,0.00,,,0.00,Wunderground v.1.12,2013-02-25 07:39:00,
2013-02-25 02:44:00,29.3,28.3,29.84,NNW,328,0.0,0.0,96,0.00,,,0.00,Wunderground v.1.12,2013-02-25 07:44:00,
2013-02-25 02:50:00,29.3,28.3,29.84,NNW,328,0.0,0.0,96,0.00,,,0.00,Wunderground v.1.12,2013-02-25 07:50:00,
2013-02-25 02:55:00,29.3,28.3,29.84,NNW,328,0.0,0.0,96,0.00,,,0.00,Wunderground v.1.12,2013-02-25 07:55:00,
2013-02-25 03:00:00,29.3,28.3,29.85,NNW,328,0.0,0.0,96,0.00,,,0.00,Wunderground v.1.12,2013-02-25 08:00:00,
2013-02-25 03:06:00,29.3,28.3,29.85,NNW,328,0.0,0.0,96,0.00,,,0.00,Wunderground v.1.12,2013-02-25 08:06:00,
2013-02-25 03:07:00,29.3,28.3,29.85,NNW,338,0.0,2.0,96,0.00,,,0.00,Wunderground v.1.12,2013-02-25 08:07:00,
2013-02-25 03:11:00,29.3,28.3,29.85,NNW,328,0.0,2.0,96,0.00,,,0.00,Wunderground v.1.12,2013-02-25 08:11:00,
2013-02-25 03:16:00,29.3,28.3,29.85,NNW,328,0.0,2.0,96,0.00,,,0.00,Wunderground v.1.12,2013-02-25 08:16:00,
2013-02-25 03:22:00,29.3,28.3,29.85,NNW,328,0.0,1.0,96,0.00,,,0.00,Wunderground v.1.12,2013-02-25 08:22:00,
2013-02-25 03:27:00,29.3,28.3,29.85,NNW,328,0.0,0.0,96,0.00,,,0.00,Wunderground v.1.12,2013-02-25 08:27:00,
2013-02-25 03:32:00,29.3,28.3,29.86,NNW,328,0.0,0.0,96,0.00,,,0.00,Wunderground v.1.12,2013-02-25 08:32:00,
2013-02-25 03:37:00,29.3,28.3,29.86,NNW,328,1.0,1.0,96,0.00,,,0.00,Wunderground v.1.12,2013-02-25 08:37:00,
2013-02-25 03:43:00,29.3,28.3,29.86,NNW,328,1.0,5.0,96,0.00,,,0.00,Wunderground v.1.12,2013-02-25 08:43:00,
2013-02-25 03:49:00,29.3,28.3,29.86,NNW,328,1.0,2.0,96,0.00,,,0.00,Wunderground v.1.12,2013-02-25 08:49:00,
2013-02-25 03:54:00,29.3,28.3,29.86,NNW,328,1.0,3.0,96,0.00,,,0.00,Wunderground v.1.12,2013-02-25 08:54:00,
2013-02-25 03:59:00,29.3,28.3,29.86,NNW,328,0.0,1.0,96,0.00,,,0.00,Wunderground v.1.12,2013-02-25 08:59:00,
2013-02-25 04:05:00,29.3,28.3,29.86,NNW,328,1.0,1.0,96,0.00,,,0.00,Wunderground v.1.12,2013-02-25 09:05:00,
2013-02-25 04:07:00,29.3,28.3,29.86,NNW,338,1.0,6.0,96,0.00,,,0.00,Wunderground v.1.12,2013-02-25 09:07:00,
2013-02-25 04:10:00,29.1,28.1,29.86,NNW,328,1.0,2.0,96,0.00,,,0.00,Wunderground v.1.12,2013-02-25 09:10:00,
2013-02-25 04:15:00,29.1,28.1,29.86,NNW,328,0.0,0.0,96,0.00,,,0.00,Wunderground v.1.12,2013-02-25 09:15:00,
2013-02-25 04:21:00,29.1,28.1,29.86,NNW,328,0.0,0.0,96,0.00,,,0.00,Wunderground v.1.12,2013-02-25 09:21:00,
2013-02-25 04:27:00,29.1,28.1,29.86,NNW,328,0.0,1.0,96,0.00,,,0.00,Wunderground v.1.12,2013-02-25 09:27:00,
2013-02-25 04:32:00,29.1,28.1,29.88,NNW,328,0.0,0.0,96,0.00,,,0.00,Wunderground v.1.12,2013-02-25 09:32:00,
2013-02-25 04:38:00,29.1,28.1,29.88,NNW,338,0.0,4.0,96,0.00,,,0.00,Wunderground v.1.12,2013-02-25 09:38:00,
2013-02-25 04:39:00,29.1,28.1,29.88,NNW,328,0.0,1.0,96,0.00,,,0.00,Wunderground v.1.12,2013-02-25 09:39:00,
2013-02-25 04:44:00,29.1,28.1,29.88,NNW,328,0.0,1.0,96,0.00,,,0.00,Wunderground v.1.12,2013-02-25 09:44:00,
2013-02-25 04:49:00,29.1,28.1,29.88,NNW,328,0.0,1.0,96,0.00,,,0.00,Wunderground v.1.12,2013-02-25 09:49:00,
2013-02-25 04:55:00,29.1,28.1,29.88,NNW,328,0.0,0.0,96,0.00,,,0.00,Wunderground v.1.12,2013-02-25 09:55:00,
2013-02-25 05:01:00,29.1,28.1,29.89,NNW,328,0.0,0.0,96,0.00,,,0.00,Wunderground v.1.12,2013-02-25 10:01:00,
2013-02-25 05:05:00,29.1,28.1,29.89,NNW,338,0.0,3.0,96,0.00,,,0.00,Wunderground v.1.12,2013-02-25 10:05:00,
2013-02-25 05:07:00,29.0,28.0,29.89,NNW,328,0.0,0.0,96,0.00,,,0.00,Wunderground v.1.12,2013-02-25 10:07:00,
2013-02-25 05:12:00,29.0,28.0,29.89,NNW,328,0.0,0.0,96,0.00,,,0.00,Wunderground v.1.12,2013-02-25 10:12:00,
2013-02-25 05:17:00,29.0,28.0,29.89,NNW,328,0.0,0.0,96,0.00,,,0.00,Wunderground v.1.12,2013-02-25 10:17:00,
2013-02-25 05:22:00,29.0,28.0,29.89,NNW,328,0.0,0.0,96,0.00,,,0.00,Wunderground v.1.12,2013-02-25 10:22:00,
2013-02-25 05:28:00,28.8,27.8,29.89,NNW,328,0.0,1.0,96,0.00,,,0.00,Wunderground v.1.12,2013-02-25 10:28:00,
2013-02-25 05:34:00,28.7,27.7,29.89,NNW,328,0.0,0.0,96,0.00,,,0.00,Wunderground v.1.12,2013-02-25 10:34:00,
2013-02-25 05:36:00,28.8,27.8,29.89,NNW,338,0.0,3.0,96,0.00,,,0.00,Wunderground v.1.12,2013-02-25 10:36:00,
2013-02-25 05:39:00,28.7,27.4,29.89,NNW,328,0.0,0.0,95,0.00,,,0.00,Wunderground v.1.12,2013-02-25 10:39:00,
2013-02-25 05:44:00,28.5,27.3,29.89,NNW,328,0.0,0.0,95,0.00,,,0.00,Wunderground v.1.12,2013-02-25 10:44:00,
2013-02-25 05:50:00,28.4,27.2,29.91,NNW,328,0.0,0.0,95,0.00,,,0.00,Wunderground v.1.12,2013-02-25 10:50:00,
2013-02-25 05:55:00,28.2,27.0,29.91,NNW,328,0.0,0.0,95,0.00,,,0.00,Wunderground v.1.12,2013-02-25 10:55:00,
2013-02-25 06:01:00,27.9,26.7,29.91,NNW,328,0.0,0.0,95,0.00,,,0.00,Wunderground v.1.12,2013-02-25 11:01:00,
2013-02-25 06:07:00,27.8,26.6,29.91,NNW,328,0.0,0.0,95,0.00,,,0.00,Wunderground v.1.12,2013-02-25 11:07:00,
2013-02-25 06:08:00,27.9,26.7,29.91,NNW,338,0.0,1.0,95,0.00,,,0.00,Wunderground v.1.12,2013-02-25 11:08:00,
2013-02-25 06:12:00,27.8,26.6,29.91,NNW,328,0.0,0.0,95,0.00,,,0.00,Wunderground v.1.12,2013-02-25 11:12:00,
2013-02-25 06:18:00,27.5,26.3,29.91,NNW,328,0.0,0.0,95,0.00,,,0.00,Wunderground v.1.12,2013-02-25 11:18:00,
2013-02-25 06:24:00,27.3,26.1,29.91,NNW,328,0.0,0.0,95,0.00,,,0.00,Wunderground v.1.12,2013-02-25 11:24:00,
2013-02-25 06:29:00,27.3,26.1,29.91,NNW,328,0.0,0.0,95,0.00,,,0.00,Wunderground v.1.12,2013-02-25 11:29:00,
2013-02-25 06:34:00,27.0,25.8,29.92,NNW,328,0.0,0.0,95,0.00,,,0.00,Wunderground v.1.12,2013-02-25 11:34:00,
2013-02-25 06:37:00,27.2,26.0,29.92,N/A,-737280,0.0,0.0,95,0.00,,,0.00,Wunderground v.1.12,2013-02-25 11:37:00,
2013-02-25 06:40:00,26.7,25.5,29.92,NNW,328,0.0,0.0,95,0.00,,,0.00,Wunderground v.1.12,2013-02-25 11:40:00,
2013-02-25 06:46:00,26.6,25.4,29.93,NNW,328,0.0,0.0,95,0.00,,,0.00,Wunderground v.1.12,2013-02-25 11:46:00,
2013-02-25 06:51:00,26.6,25.4,29.93,NNW,328,0.0,0.0,95,0.00,,,0.00,Wunderground v.1.12,2013-02-25 11:51:00,
2013-02-25 06:56:00,26.6,25.4,29.93,NNW,328,0.0,0.0,95,0.00,,,0.00,Wunderground v.1.12,2013-02-25 11:56:00,
2013-02-25 07:01:00,26.6,25.4,29.93,NNW,328,0.0,0.0,95,0.00,,,0.00,Wunderground v.1.12,2013-02-25 12:01:00,
2013-02-25 07:06:00,26.6,25.4,29.93,NNW,328,0.0,0.0,95,0.00,,,0.00,Wunderground v.1.12,2013-02-25 12:06:00,
2013-02-25 07:08:00,26.6,25.4,29.93,N/A,-737280,0.0,0.0,95,0.00,,,0.00,Wunderground v.1.12,2013-02-25 12:08:00,
2013-02-25 07:12:00,26.7,25.5,29.93,NNW,328,0.0,0.0,95,0.00,,,0.00,Wunderground v.1.12,2013-02-25 12:12:00,
2013-02-25 07:19:00,27.0,26.0,29.94,NNW,328,0.0,0.0,96,0.00,,,0.00,Wunderground v.1.12,2013-02-25 12:19:00,
2013-02-25 07:24:00,27.3,26.3,29.94,NNW,328,0.0,0.0,96,0.00,,,0.00,Wunderground v.1.12,2013-02-25 12:24:00,
2013-02-25 07:30:00,27.6,26.6,29.95,NNW,328,0.0,0.0,96,0.00,,,0.00,Wunderground v.1.12,2013-02-25 12:30:00,
2013-02-25 07:35:00,27.9,26.9,29.95,NNW,328,0.0,0.0,96,0.00,,,0.00,Wunderground v.1.12,2013-02-25 12:35:00,
2013-02-25 07:37:00,27.6,26.6,29.95,N/A,-737280,0.0,0.0,96,0.00,,,0.00,Wunderground v.1.12,2013-02-25 12:37:00,
2013-02-25 07:40:00,28.2,27.2,29.95,NNW,328,0.0,0.0,96,0.00,,,0.00,Wunderground v.1.12,2013-02-25 12:40:00,
2013-02-25 07:45:00,28.7,27.7,29.95,NNW,328,0.0,0.0,96,0.00,,,0.00,Wunderground v.1.12,2013-02-25 12:45:00,
2013-02-25 07:53:00,29.1,28.1,29.95,NNW,328,0.0,0.0,96,0.00,,,0.00,Wunderground v.1.12,2013-02-25 12:53:00,
2013-02-25 07:58:00,29.5,28.5,29.95,NNW,328,0.0,0.0,96,0.00,,,0.00,Wunderground v.1.12,2013-02-25 12:58:00,
2013-02-25 08:04:00,29.5,28.5,29.95,NNW,328,0.0,0.0,96,0.00,,,0.00,Wunderground v.1.12,2013-02-25 13:04:00,
2013-02-25 08:05:00,29.5,28.5,29.95,N/A,-737280,0.0,0.0,96,0.00,,,0.00,Wunderground v.1.12,2013-02-25 13:05:00,
2013-02-25 08:09:00,29.8,28.8,29.95,NNW,328,0.0,0.0,96,0.00,,,0.00,Wunderground v.1.12,2013-02-25 13:09:00,
2013-02-25 08:14:00,30.1,29.1,29.95,NNW,328,0.0,0.0,96,0.00,,,0.00,Wunderground v.1.12,2013-02-25 13:14:00,
2013-02-25 08:20:00,30.6,29.6,29.95,NNW,328,0.0,0.0,96,0.00,,,0.00,Wunderground v.1.12,2013-02-25 13:20:00,
2013-02-25 08:25:00,30.7,29.7,29.95,NNW,328,0.0,0.0,96,0.00,,,0.00,Wunderground v.1.12,2013-02-25 13:25:00,
2013-02-25 08:32:00,30.9,29.9,29.97,NNW,328,0.0,0.0,96,0.00,,,0.00,Wunderground v.1.12,2013-02-25 13:32:00,
2013-02-25 08:37:00,30.9,29.9,29.97,NNW,338,0.0,1.0,96,0.00,,,0.00,Wunderground v.1.12,2013-02-25 13:37:00,
2013-02-25 08:38:00,30.9,29.9,29.97,NNW,328,0.0,1.0,96,0.00,,,0.00,Wunderground v.1.12,2013-02-25 13:38:00,
2013-02-25 08:43:00,30.9,29.9,29.97,NNW,328,0.0,0.0,96,0.00,,,0.00,Wunderground v.1.12,2013-02-25 13:43:00,
2013-02-25 08:49:00,30.9,29.9,29.97,NNW,328,0.0,0.0,96,0.00,,,0.00,Wunderground v.1.12,2013-02-25 13:49:00,
2013-02-25 08:54:00,31.0,30.0,29.97,NNW,328,0.0,1.0,96,0.00,,,0.00,Wunderground v.1.12,2013-02-25 13:54:00,
2013-02-25 09:00:00,31.2,29.9,29.97,NNW,328,0.0,0.0,95,0.00,,,0.00,Wunderground v.1.12,2013-02-25 14:00:00,
2013-02-25 09:05:00,31.5,30.5,29.97,NNW,328,0.0,0.0,96,0.00,,,0.00,Wunderground v.1.12,2013-02-25 14:05:00,
2013-02-25 09:08:00,31.2,29.9,29.97,NNW,338,0.0,3.0,95,0.00,,,0.00,Wunderground v.1.12,2013-02-25 14:08:00,
2013-02-25 09:10:00,31.5,30.2,29.97,NNW,328,0.0,0.0,95,0.00,,,0.00,Wunderground v.1.12,2013-02-25 14:10:00,
2013-02-25 09:15:00,31.8,30.5,29.98,NNW,328,0.0,0.0,95,0.00,,,0.00,Wunderground v.1.12,2013-02-25 14:15:00,
2013-02-25 09:21:00,31.8,30.5,29.98,NNW,328,0.0,0.0,95,0.00,,,0.00,Wunderground v.1.12,2013-02-25 14:21:00,
2013-02-25 09:26:00,31.9,30.6,29.98,NNW,328,0.0,1.0,95,0.00,,,0.00,Wunderground v.1.12,2013-02-25 14:26:00,
2013-02-25 09:32:00,32.1,30.8,29.98,NNW,328,1.0,1.0,95,0.00,,,0.00,Wunderground v.1.12,2013-02-25 14:32:00,
2013-02-25 09:36:00,32.1,30.8,29.98,NNW,338,0.0,3.0,95,0.00,,,0.00,Wunderground v.1.12,2013-02-25 14:36:00,
2013-02-25 09:38:00,32.2,30.7,29.98,NNW,328,0.0,2.0,94,0.00,,,0.00,Wunderground v.1.12,2013-02-25 14:38:00,
2013-02-25 09:43:00,32.4,30.9,29.98,NNW,328,0.0,4.0,94,0.00,,,0.00,Wunderground v.1.12,2013-02-25 14:43:00,
2013-02-25 09:49:00,32.5,31.0,29.98,NNW,328,1.0,2.0,94,0.00,,,0.00,Wunderground v.1.12,2013-02-25 14:49:00,
2013-02-25 09:54:00,32.7,31.2,29.98,NNW,328,1.0,2.0,94,0.00,,,0.00,Wunderground v.1.12,2013-02-25 14:54:00,
2013-02-25 10:00:00,32.5,30.7,29.99,NNW,328,1.0,1.0,93,0.00,,,0.00,Wunderground v.1.12,2013-02-25 15:00:00,
2013-02-25 10:05:00,32.8,31.0,29.99,NNW,328,1.0,2.0,93,0.00,,,0.00,Wunderground v.1.12,2013-02-25 15:05:00,
2013-02-25 10:07:00,32.5,30.7,29.99,NNW,338,1.0,4.0,93,0.00,,,0.00,Wunderground v.1.12,2013-02-25 15:07:00,
2013-02-25 10:11:00,32.8,30.7,29.99,NNW,328,1.0,3.0,92,0.00,,,0.00,Wunderground v.1.12,2013-02-25 15:11:00,
2013-02-25 10:16:00,32.8,30.7,30.00,NNW,328,1.0,1.0,92,0.00,,,0.00,Wunderground v.1.12,2013-02-25 15:16:00,
2013-02-25 10:21:00,32.9,30.6,30.00,NNW,328,1.0,3.0,91,0.00,,,0.00,Wunderground v.1.12,2013-02-25 15:21:00,
2013-02-25 10:27:00,33.2,30.9,30.00,NNW,328,1.0,1.0,91,0.00,,,0.00,Wunderground v.1.12,2013-02-25 15:27:00,
2013-02-25 10:34:00,33.7,31.1,30.00,NNW,328,0.0,1.0,90,0.00,,,0.00,Wunderground v.1.12,2013-02-25 15:34:00,
2013-02-25 10:36:00,33.4,30.8,30.00,NNW,338,1.0,5.0,90,0.00,,,0.00,Wunderground v.1.12,2013-02-25 15:36:00,
2013-02-25 10:39:00,33.8,30.9,30.00,NNW,328,0.0,1.0,89,0.00,,,0.00,Wunderground v.1.12,2013-02-25 15:39:00,
2013-02-25 10:45:00,34.3,31.1,30.00,NNW,328,1.0,1.0,88,0.00,,,0.00,Wunderground v.1.12,2013-02-25 15:45:00,
2013-02-25 10:50:00,34.9,31.7,30.00,NNW,328,1.0,1.0,88,0.00,,,0.00,Wunderground v.1.12,2013-02-25 15:50:00,
2013-02-25 10:56:00,35.5,32.0,30.00,NNW,328,0.0,0.0,87,0.00,,,0.00,Wunderground v.1.12,2013-02-25 15:56:00,
2013-02-25 11:02:00,35.9,31.8,30.00,NNW,328,0.0,0.0,85,0.00,,,0.00,Wunderground v.1.12,2013-02-25 16:02:00,
2013-02-25 11:07:00,35.9,31.2,30.00,NNW,328,0.0,0.0,83,0.00,,,0.01,Wunderground v.1.12,2013-02-25 16:07:00,
2013-02-25 11:13:00,35.8,30.5,30.00,NNW,328,1.0,2.0,81,0.17,,,0.03,Wunderground v.1.12,2013-02-25 16:13:00,
2013-02-25 11:18:00,35.6,30.3,30.00,NNW,328,1.0,2.0,81,0.19,,,0.04,Wunderground v.1.12,2013-02-25 16:18:00,
2013-02-25 11:24:00,35.9,30.3,30.00,NNW,328,1.0,2.0,80,0.14,,,0.05,Wunderground v.1.12,2013-02-25 16:24:00,
2013-02-25 11:29:00,36.8,31.5,30.00,NNW,328,0.0,1.0,81,0.14,,,0.07,Wunderground v.1.12,2013-02-25 16:29:00,
2013-02-25 11:35:00,37.0,30.8,30.01,NNW,328,1.0,1.0,78,0.17,,,0.08,Wunderground v.1.12,2013-02-25 16:35:00,
2013-02-25 11:37:00,36.8,31.2,30.01,NNW,338,1.0,4.0,80,0.07,,,0.14,Wunderground v.1.12,2013-02-25 16:37:00,
2013-02-25 11:41:00,36.8,30.3,30.01,NNW,328,1.0,1.0,77,0.16,,,0.10,Wunderground v.1.12,2013-02-25 16:41:00,
2013-02-25 11:46:00,37.0,30.1,30.01,NNW,328,0.0,0.0,76,0.12,,,0.11,Wunderground v.1.12,2013-02-25 16:46:00,
2013-02-25 11:51:00,36.9,29.1,30.01,NNW,328,1.0,2.0,73,0.14,,,0.12,Wunderground v.1.12,2013-02-25 16:51:00,
2013-02-25 11:56:00,37.0,29.1,30.01,NNW,328,1.0,1.0,73,0.14,,,0.13,Wunderground v.1.12,2013-02-25 16:56:00,
2013-02-25 12:01:00,37.0,29.1,30.00,NNW,328,1.0,1.0,73,0.13,,,0.14,Wunderground v.1.12,2013-02-25 17:01:00,
2013-02-25 12:07:00,36.9,28.4,30.00,NNW,327,1.0,3.0,71,0.15,,,0.16,Wunderground v.1.12,2013-02-25 17:07:00,
2013-02-25 12:13:00,36.6,28.4,30.00,NNW,327,1.0,1.0,72,0.15,,,0.17,Wunderground v.1.12,2013-02-25 17:13:00,
2013-02-25 12:19:00,36.8,28.6,30.00,NNW,327,1.0,2.0,72,0.13,,,0.18,Wunderground v.1.12,2013-02-25 17:19:00,
2013-02-25 12:25:00,37.0,28.8,30.00,NNW,327,1.0,1.0,72,0.11,,,0.19,Wunderground v.1.12,2013-02-25 17:25:00,
2013-02-25 12:31:00,37.3,29.4,30.00,NNW,327,1.0,1.0,73,0.13,,,0.21,Wunderground v.1.12,2013-02-25 17:31:00,
2013-02-25 12:35:00,37.3,29.4,30.00,NNW,338,1.0,4.0,73,0.14,,,0.27,Wunderground v.1.12,2013-02-25 17:35:00,
2013-02-25 12:37:00,37.5,29.6,30.00,NNW,327,0.0,0.0,73,0.11,,,0.22,Wunderground v.1.12,2013-02-25 17:37:00,
2013-02-25 12:42:00,37.5,28.9,30.00,NNW,327,0.0,1.0,71,0.11,,,0.23,Wunderground v.1.12,2013-02-25 17:42:00,
2013-02-25 12:47:00,38.0,29.4,30.00,NNW,327,0.0,0.0,71,0.11,,,0.24,Wunderground v.1.12,2013-02-25 17:47:00,
2013-02-25 12:52:00,38.9,29.6,30.00,NNW,327,0.0,2.0,69,0.12,,,0.25,Wunderground v.1.12,2013-02-25 17:52:00,
2013-02-25 12:57:00,39.3,30.3,30.00,NNW,327,0.0,0.0,70,0.14,,,0.26,Wunderground v.1.12,2013-02-25 17:57:00,
2013-02-25 13:03:00,39.2,29.2,30.00,NNW,327,1.0,3.0,67,0.15,,,0.27,Wunderground v.1.12,2013-02-25 18:03:00,
2013-02-25 13:07:00,39.5,29.4,30.00,NNW,338,0.0,3.0,67,0.13,,,0.32,Wunderground v.1.12,2013-02-25 18:07:00,
2013-02-25 13:09:00,38.9,28.9,30.00,NW,326,1.0,1.0,67,0.12,,,0.28,Wunderground v.1.12,2013-02-25 18:09:00,
2013-02-25 13:14:00,38.8,28.8,30.00,NW,326,1.0,2.0,67,0.13,,,0.29,Wunderground v.1.12,2013-02-25 18:14:00,
2013-02-25 13:19:00,38.9,28.9,30.01,NW,321,1.0,3.0,67,0.11,,,0.30,Wunderground v.1.12,2013-02-25 18:19:00,
2013-02-25 13:25:00,39.2,29.2,30.01,NW,323,2.0,2.0,67,0.12,,,0.31,Wunderground v.1.12,2013-02-25 18:25:00,
2013-02-25 13:30:00,40.1,30.0,30.01,NW,323,1.0,1.0,67,0.09,,,0.32,Wunderground v.1.12,2013-02-25 18:30:00,
2013-02-25 13:35:00,39.9,29.8,30.01,NW,309,1.0,2.0,67,0.11,,,0.33,Wunderground v.1.12,2013-02-25 18:35:00,
2013-02-25 13:37:00,40.1,30.0,30.01,NW,315,1.0,5.0,67,0.11,,,0.36,Wunderground v.1.12,2013-02-25 18:37:00,
2013-02-25 13:41:00,39.8,29.7,30.01,NW,311,1.0,2.0,67,0.11,,,0.34,Wunderground v.1.12,2013-02-25 18:41:00,
2013-02-25 13:46:00,39.3,28.9,30.02,WNW,286,2.0,3.0,66,0.09,,,0.35,Wunderground v.1.12,2013-02-25 18:46:00,
2013-02-25 13:51:00,39.1,28.7,30.02,WNW,296,2.0,3.0,66,0.08,,,0.35,Wunderground v.1.12,2013-02-25 18:51:00,
2013-02-25 13:57:00,38.8,29.1,30.02,WNW,300,1.0,2.0,68,0.07,,,0.36,Wunderground v.1.12,2013-02-25 18:57:00,
2013-02-25 14:04:00,38.6,28.9,30.03,WNW,300,0.0,2.0,68,0.05,,,0.37,Wunderground v.1.12,2013-02-25 19:04:00,
2013-02-25 14:08:00,38.6,28.6,30.03,WNW,293,1.0,6.0,67,0.09,,,0.38,Wunderground v.1.12,2013-02-25 19:08:00,
2013-02-25 14:09:00,38.5,28.9,30.03,WNW,300,1.0,4.0,68,0.05,,,0.37,Wunderground v.1.12,2013-02-25 19:09:00,
2013-02-25 14:14:00,38.5,29.2,30.03,WNW,301,1.0,2.0,69,0.05,,,0.37,Wunderground v.1.12,2013-02-25 19:14:00,
2013-02-25 14:20:00,38.3,28.7,30.03,WNW,301,1.0,2.0,68,0.04,,,0.37,Wunderground v.1.12,2013-02-25 19:20:00,
2013-02-25 14:26:00,38.2,29.3,30.03,WNW,301,1.0,1.0,70,0.00,,,0.38,Wunderground v.1.12,2013-02-25 19:26:00,
2013-02-25 14:31:00,38.2,28.9,30.04,WNW,301,0.0,1.0,69,0.00,,,0.38,Wunderground v.1.12,2013-02-25 19:31:00,
2013-02-25 14:37:00,38.2,28.9,30.04,WNW,301,0.0,0.0,69,0.00,,,0.38,Wunderground v.1.12,2013-02-25 19:37:00,
2013-02-25 14:43:00,38.6,28.9,30.04,WNW,301,0.0,1.0,68,0.00,,,0.38,Wunderground v.1.12,2013-02-25 19:43:00,
2013-02-25 14:49:00,38.9,29.2,30.03,WNW,301,0.0,3.0,68,0.00,,,0.38,Wunderground v.1.12,2013-02-25 19:49:00,
2013-02-25 14:54:00,39.5,30.2,30.03,WNW,301,1.0,1.0,69,0.00,,,0.38,Wunderground v.1.12,2013-02-25 19:54:00,
2013-02-25 15:00:00,39.8,30.1,30.04,WNW,301,0.0,0.0,68,0.00,,,0.38,Wunderground v.1.12,2013-02-25 20:00:00,
2013-02-25 15:05:00,40.2,30.1,30.04,WNW,301,0.0,0.0,67,0.00,,,0.38,Wunderground v.1.12,2013-02-25 20:05:00,
2013-02-25 15:08:00,39.8,30.1,30.04,WNW,293,0.0,3.0,68,0.02,,,0.38,Wunderground v.1.12,2013-02-25 20:08:00,
2013-02-25 15:11:00,40.6,30.1,30.04,WNW,301,1.0,1.0,66,0.00,,,0.38,Wunderground v.1.12,2013-02-25 20:11:00,
2013-02-25 15:16:00,40.2,30.1,30.05,WNW,300,1.0,5.0,67,0.00,,,0.38,Wunderground v.1.12,2013-02-25 20:16:00,
2013-02-25 15:21:00,39.2,29.9,30.05,WNW,296,1.0,2.0,69,0.00,,,0.38,Wunderground v.1.12,2013-02-25 20:21:00,
2013-02-25 15:26:00,38.9,30.3,30.05,WNW,297,2.0,3.0,71,0.00,,,0.38,Wunderground v.1.12,2013-02-25 20:26:00,
2013-02-25 15:32:00,38.3,30.1,30.06,WNW,288,1.0,3.0,72,0.00,,,0.38,Wunderground v.1.12,2013-02-25 20:32:00,
2013-02-25 15:38:00,38.0,30.1,30.06,WNW,286,2.0,3.0,73,0.00,,,0.38,Wunderground v.1.12,2013-02-25 20:38:00,
2013-02-25 15:44:00,37.9,30.4,30.06,WNW,286,1.0,3.0,74,0.00,,,0.38,Wunderground v.1.12,2013-02-25 20:44:00,
2013-02-25 15:49:00,37.8,30.6,30.06,WNW,286,1.0,4.0,75,0.00,,,0.38,Wunderground v.1.12,2013-02-25 20:49:00,
2013-02-25 15:56:00,37.6,30.1,30.06,West,275,2.0,2.0,74,0.00,,,0.38,Wunderground v.1.12,2013-02-25 20:56:00,
2013-02-25 16:02:00,37.6,30.4,30.06,West,275,1.0,1.0,75,0.00,,,0.38,Wunderground v.1.12,2013-02-25 21:02:00,
2013-02-25 16:06:00,37.6,30.1,30.06,WNW,293,1.0,6.0,74,0.00,,,0.38,Wunderground v.1.12,2013-02-25 21:06:00,
2013-02-25 16:09:00,37.5,30.3,30.06,West,275,0.0,2.0,75,0.00,,,0.38,Wunderground v.1.12,2013-02-25 21:09:00,
2013-02-25 16:14:00,37.2,30.3,30.06,West,275,0.0,0.0,76,0.00,,,0.38,Wunderground v.1.12,2013-02-25 21:14:00,
2013-02-25 16:20:00,37.2,30.3,30.06,West,275,0.0,0.0,76,0.00,,,0.38,Wunderground v.1.12,2013-02-25 21:20:00,
2013-02-25 16:26:00,37.2,30.3,30.06,West,275,0.0,0.0,76,0.00,,,0.38,Wunderground v.1.12,2013-02-25 21:26:00,
2013-02-25 16:31:00,37.2,30.3,30.06,West,275,0.0,0.0,76,0.00,,,0.38,Wunderground v.1.12,2013-02-25 21:31:00,
2013-02-25 16:36:00,37.2,30.3,30.06,West,275,0.0,0.0,76,0.00,,,0.38,Wunderground v.1.12,2013-02-25 21:36:00,
2013-02-25 16:41:00,37.2,30.3,30.06,West,275,0.0,0.0,76,0.00,,,0.38,Wunderground v.1.12,2013-02-25 21:41:00,
2013-02-25 16:47:00,37.0,30.5,30.06,West,275,0.0,0.0,77,0.00,,,0.38,Wunderground v.1.12,2013-02-25 21:47:00,
2013-02-25 16:52:00,36.9,30.7,30.06,West,275,0.0,0.0,78,0.00,,,0.38,Wunderground v.1.12,2013-02-25 21:52:00,
2013-02-25 16:57:00,36.6,30.7,30.06,West,275,0.0,0.0,79,0.00,,,0.38,Wunderground v.1.12,2013-02-25 21:57:00,
2013-02-25 17:04:00,36.5,30.6,30.07,West,275,0.0,0.0,79,0.00,,,0.38,Wunderground v.1.12,2013-02-25 22:04:00,
2013-02-25 17:06:00,36.6,30.7,30.07,West,270,0.0,1.0,79,0.00,,,0.38,Wunderground v.1.12,2013-02-25 22:06:00,
2013-02-25 17:10:00,36.5,30.9,30.07,West,275,0.0,0.0,80,0.00,,,0.38,Wunderground v.1.12,2013-02-25 22:10:00,
2013-02-25 17:16:00,36.2,30.9,30.07,West,275,0.0,0.0,81,0.00,,,0.38,Wunderground v.1.12,2013-02-25 22:16:00,
2013-02-25 17:22:00,36.2,31.2,30.07,West,275,0.0,0.0,82,0.00,,,0.38,Wunderground v.1.12,2013-02-25 22:22:00,
2013-02-25 17:28:00,36.0,31.0,30.07,West,275,0.0,0.0,82,0.00,,,0.38,Wunderground v.1.12,2013-02-25 22:28:00,
2013-02-25 17:34:00,35.9,31.2,30.08,West,275,0.0,0.0,83,0.00,,,0.38,Wunderground v.1.12,2013-02-25 22:34:00,
2013-02-25 17:35:00,35.9,31.2,30.08,N/A,-737280,0.0,0.0,83,0.00,,,0.38,Wunderground v.1.12,2013-02-25 22:35:00,
2013-02-25 17:39:00,35.8,31.1,30.08,West,275,0.0,0.0,83,0.00,,,0.38,Wunderground v.1.12,2013-02-25 22:39:00,
2013-02-25 17:45:00,35.6,30.9,30.07,West,275,0.0,0.0,83,0.00,,,0.38,Wunderground v.1.12,2013-02-25 22:45:00,
2013-02-25 17:50:00,35.6,30.9,30.07,West,275,0.0,0.0,83,0.00,,,0.38,Wunderground v.1.12,2013-02-25 22:50:00,
2013-02-25 17:56:00,35.5,31.1,30.07,West,275,0.0,0.0,84,0.00,,,0.38,Wunderground v.1.12,2013-02-25 22:56:00,
2013-02-25 18:02:00,35.3,30.9,30.07,West,275,0.0,0.0,84,0.00,,,0.38,Wunderground v.1.12,2013-02-25 23:02:00,
2013-02-25 18:08:00,35.0,30.7,30.07,West,275,0.0,0.0,84,0.00,,,0.38,Wunderground v.1.12,2013-02-25 23:08:00,
2013-02-25 18:14:00,34.7,30.7,30.07,West,275,0.0,0.0,85,0.00,,,0.38,Wunderground v.1.12,2013-02-25 23:14:00,
2013-02-25 18:19:00,34.6,30.6,30.08,West,275,0.0,0.0,85,0.00,,,0.38,Wunderground v.1.12,2013-02-25 23:19:00,
2013-02-25 18:24:00,34.3,30.5,30.08,West,275,0.0,0.0,86,0.00,,,0.38,Wunderground v.1.12,2013-02-25 23:24:00,
2013-02-25 18:29:00,34.1,30.4,30.08,West,275,0.0,0.0,86,0.00,,,0.38,Wunderground v.1.12,2013-02-25 23:29:00,
2013-02-25 18:35:00,33.7,30.2,30.08,West,275,0.0,0.0,87,0.00,,,0.38,Wunderground v.1.12,2013-02-25 23:35:00,
2013-02-25 18:38:00,34.0,30.3,30.08,N/A,-737280,0.0,0.0,86,0.00,,,0.38,Wunderground v.1.12,2013-02-25 23:38:00,
2013-02-25 18:41:00,33.5,30.0,30.08,West,275,0.0,0.0,87,0.00,,,0.38,Wunderground v.1.12,2013-02-25 23:41:00,
2013-02-25 18:46:00,33.2,29.8,30.09,West,275,0.0,0.0,87,0.00,,,0.38,Wunderground v.1.12,2013-02-25 23:46:00,
2013-02-25 18:51:00,33.1,29.9,30.09,West,275,0.0,0.0,88,0.00,,,0.38,Wunderground v.1.12,2013-02-25 23:51:00,
2013-02-25 18:57:00,32.8,29.6,30.09,West,275,0.0,0.0,88,0.00,,,0.38,Wunderground v.1.12,2013-02-25 23:57:00,
2013-02-25 19:02:00,32.5,29.3,30.09,West,275,0.0,0.0,88,0.00,,,0.38,Wunderground v.1.12,2013-02-26 00:02:00,
2013-02-25 19:08:00,32.5,29.3,30.09,N/A,-737280,0.0,0.0,88,0.00,,,0.38,Wunderground v.1.12,2013-02-26 00:08:00,
2013-02-25 19:09:00,32.1,28.9,30.09,West,275,0.0,0.0,88,0.00,,,0.38,Wunderground v.1.12,2013-02-26 00:09:00,
2013-02-25 19:15:00,31.9,29.0,30.09,West,275,0.0,0.0,89,0.00,,,0.38,Wunderground v.1.12,2013-02-26 00:15:00,
2013-02-25 19:20:00,31.8,28.9,30.09,West,275,0.0,0.0,89,0.00,,,0.38,Wunderground v.1.12,2013-02-26 00:20:00,
2013-02-25 19:26:00,31.6,28.7,30.09,West,275,0.0,0.0,89,0.00,,,0.38,Wunderground v.1.12,2013-02-26 00:26:00,
2013-02-25 19:31:00,31.5,28.6,30.10,West,275,0.0,0.0,89,0.00,,,0.38,Wunderground v.1.12,2013-02-26 00:31:00,
2013-02-25 19:37:00,31.3,28.7,30.10,West,275,0.0,0.0,90,0.00,,,0.38,Wunderground v.1.12,2013-02-26 00:37:00,
2013-02-25 19:44:00,31.0,28.4,30.11,West,275,0.0,0.0,90,0.00,,,0.38,Wunderground v.1.12,2013-02-26 00:44:00,
2013-02-25 19:50:00,30.7,28.1,30.11,West,275,0.0,0.0,90,0.00,,,0.38,Wunderground v.1.12,2013-02-26 00:50:00,
2013-02-25 19:55:00,30.7,28.1,30.11,West,275,0.0,0.0,90,0.00,,,0.38,Wunderground v.1.12,2013-02-26 00:55:00,
2013-02-25 20:01:00,30.6,28.3,30.12,West,275,0.0,0.0,91,0.00,,,0.38,Wunderground v.1.12,2013-02-26 01:01:00,
2013-02-25 20:07:00,30.6,28.3,30.12,West,275,0.0,0.0,91,0.00,,,0.38,Wunderground v.1.12,2013-02-26 01:07:00,
2013-02-25 20:13:00,30.4,28.1,30.12,West,275,0.0,0.0,91,0.00,,,0.38,Wunderground v.1.12,2013-02-26 01:13:00,
2013-02-25 20:19:00,30.4,28.1,30.12,West,275,0.0,0.0,91,0.00,,,0.38,Wunderground v.1.12,2013-02-26 01:19:00,
2013-02-25 20:25:00,30.3,28.3,30.12,West,275,0.0,0.0,92,0.00,,,0.38,Wunderground v.1.12,2013-02-26 01:25:00,
2013-02-25 20:30:00,30.3,28.3,30.12,West,275,0.0,0.0,92,0.00,,,0.38,Wunderground v.1.12,2013-02-26 01:30:00,
2013-02-25 20:35:00,30.1,28.1,30.12,West,275,0.0,0.0,92,0.00,,,0.38,Wunderground v.1.12,2013-02-26 01:35:00,
2013-02-25 20:37:00,30.3,28.3,30.12,N/A,-737280,0.0,0.0,92,0.00,,,0.38,Wunderground v.1.12,2013-02-26 01:37:00,
2013-02-25 20:40:00,30.1,28.1,30.12,West,275,0.0,0.0,92,0.00,,,0.38,Wunderground v.1.12,2013-02-26 01:40:00,
2013-02-25 20:45:00,30.1,28.1,30.12,West,275,0.0,0.0,92,0.00,,,0.38,Wunderground v.1.12,2013-02-26 01:45:00,
2013-02-25 20:51:00,30.0,28.0,30.12,West,275,0.0,0.0,92,0.00,,,0.38,Wunderground v.1.12,2013-02-26 01:51:00,
2013-02-25 20:57:00,29.8,27.8,30.12,West,275,0.0,0.0,92,0.00,,,0.38,Wunderground v.1.12,2013-02-26 01:57:00,
2013-02-25 21:04:00,29.8,27.8,30.12,West,275,0.0,0.0,92,0.00,,,0.38,Wunderground v.1.12,2013-02-26 02:04:00,
2013-02-25 21:07:00,29.8,27.8,30.12,N/A,-737280,0.0,0.0,92,0.00,,,0.38,Wunderground v.1.12,2013-02-26 02:07:00,
2013-02-25 21:09:00,29.8,27.8,30.12,West,275,0.0,0.0,92,0.00,,,0.38,Wunderground v.1.12,2013-02-26 02:09:00,
2013-02-25 21:15:00,29.7,27.9,30.12,West,275,0.0,0.0,93,0.00,,,0.38,Wunderground v.1.12,2013-02-26 02:15:00,
2013-02-25 21:21:00,29.7,27.9,30.12,West,275,0.0,0.0,93,0.00,,,0.38,Wunderground v.1.12,2013-02-26 02:21:00,
2013-02-25 21:27:00,29.5,27.7,30.12,West,275,0.0,0.0,93,0.00,,,0.38,Wunderground v.1.12,2013-02-26 02:27:00,
2013-02-25 21:32:00,29.4,27.6,30.12,West,275,0.0,0.0,93,0.00,,,0.38,Wunderground v.1.12,2013-02-26 02:32:00,
2013-02-25 21:37:00,29.4,27.6,30.12,N/A,-737280,0.0,0.0,93,0.00,,,0.38,Wunderground v.1.12,2013-02-26 02:37:00,
2013-02-25 21:39:00,29.3,27.5,30.12,West,275,0.0,0.0,93,0.00,,,0.38,Wunderground v.1.12,2013-02-26 02:39:00,
2013-02-25 21:45:00,29.1,27.3,30.12,West,275,0.0,0.0,93,0.00,,,0.38,Wunderground v.1.12,2013-02-26 02:45:00,
2013-02-25 21:51:00,29.1,27.3,30.12,West,275,0.0,0.0,93,0.00,,,0.38,Wunderground v.1.12,2013-02-26 02:51:00,
2013-02-25 21:57:00,29.1,27.3,30.12,West,275,0.0,0.0,93,0.00,,,0.38,Wunderground v.1.12,2013-02-26 02:57:00,
2013-02-25 22:03:00,29.0,27.2,30.12,West,275,0.0,0.0,93,0.00,,,0.38,Wunderground v.1.12,2013-02-26 03:03:00,
2013-02-25 22:07:00,29.1,27.3,30.12,N/A,-737280,0.0,0.0,93,0.00,,,0.38,Wunderground v.1.12,2013-02-26 03:07:00,
2013-02-25 22:09:00,29.0,27.2,30.12,West,275,0.0,0.0,93,0.00,,,0.38,Wunderground v.1.12,2013-02-26 03:09:00,
2013-02-25 22:15:00,28.8,27.0,30.12,West,275,0.0,0.0,93,0.00,,,0.38,Wunderground v.1.12,2013-02-26 03:15:00,
2013-02-25 22:20:00,28.7,27.2,30.12,West,275,0.0,0.0,94,0.00,,,0.38,Wunderground v.1.12,2013-02-26 03:20:00,
2013-02-25 22:25:00,28.7,26.9,30.12,West,275,0.0,0.0,93,0.00,,,0.38,Wunderground v.1.12,2013-02-26 03:25:00,
2013-02-25 22:30:00,28.5,27.0,30.12,West,275,0.0,0.0,94,0.00,,,0.38,Wunderground v.1.12,2013-02-26 03:30:00,
2013-02-25 22:35:00,28.5,27.0,30.12,West,275,0.0,0.0,94,0.00,,,0.38,Wunderground v.1.12,2013-02-26 03:35:00,
2013-02-25 22:37:00,28.5,27.0,30.12,West,270,0.0,1.0,94,0.00,,,0.38,Wunderground v.1.12,2013-02-26 03:37:00,
2013-02-25 22:40:00,28.4,26.9,30.12,West,275,0.0,0.0,94,0.00,,,0.38,Wunderground v.1.12,2013-02-26 03:40:00,
2013-02-25 22:47:00,28.2,26.7,30.12,West,275,0.0,0.0,94,0.00,,,0.38,Wunderground v.1.12,2013-02-26 03:47:00,
2013-02-25 22:54:00,28.1,26.6,30.12,West,275,0.0,0.0,94,0.00,,,0.38,Wunderground v.1.12,2013-02-26 03:54:00,
2013-02-25 23:00:00,28.2,26.7,30.12,West,275,0.0,0.0,94,0.00,,,0.38,Wunderground v.1.12,2013-02-26 04:00:00,
2013-02-25 23:06:00,28.1,26.6,30.12,West,275,0.0,0.0,94,0.00,,,0.38,Wunderground v.1.12,2013-02-26 04:06:00,
2013-02-25 23:12:00,28.1,26.6,30.12,West,275,0.0,0.0,94,0.00,,,0.38,Wunderground v.1.12,2013-02-26 04:12:00,
2013-02-25 23:17:00,28.1,26.6,30.12,West,275,0.0,0.0,94,0.00,,,0.38,Wunderground v.1.12,2013-02-26 04:17:00,
2013-02-25 23:23:00,27.8,26.3,30.12,West,275,0.0,0.0,94,0.00,,,0.38,Wunderground v.1.12,2013-02-26 04:23:00,
2013-02-25 23:29:00,27.8,26.3,30.12,West,275,0.0,0.0,94,0.00,,,0.38,Wunderground v.1.12,2013-02-26 04:29:00,
2013-02-25 23:34:00,27.6,26.1,30.14,West,275,0.0,0.0,94,0.00,,,0.38,Wunderground v.1.12,2013-02-26 04:34:00,
2013-02-25 23:38:00,27.8,26.3,30.14,N/A,-737280,0.0,0.0,94,0.00,,,0.38,Wunderground v.1.12,2013-02-26 04:38:00,
2013-02-25 23:39:00,27.6,26.1,30.14,West,275,0.0,0.0,94,0.00,,,0.38,Wunderground v.1.12,2013-02-26 04:39:00,
2013-02-25 23:45:00,27.8,26.3,30.14,West,275,0.0,0.0,94,0.00,,,0.38,Wunderground v.1.12,2013-02-26 04:45:00,
2013-02-25 23:50:00,27.9,26.4,30.14,West,275,0.0,0.0,94,0.00,,,0.38,Wunderground v.1.12,2013-02-26 04:50:00,
2013-02-25 23:55:00,27.9,26.4,30.14,West,275,0.0,0.0,94,0.00,,,0.38,Wunderground v.1.12,2013-02-26 04:55:00,